sensor_id;sensor_type;location;lat;lon;timestamp;pressure;altitude;pressure_sealevel;temperature;humidity
48882;BME280;57063;51.406;-2.402;2023-12-07T00:01:32;100092.56;;;5.41;100.00
48882;BME280;57063;51.406;-2.402;2023-12-07T00:03:59;100105.25;;;5.44;100.00
48882;BME280;57063;51.406;-2.402;2023-12-07T00:06:24;100101.16;;;5.40;100.00
48882;BME280;57063;51.406;-2.402;2023-12-07T00:08:50;100099.38;;;5.42;100.00
48882;BME280;57063;51.406;-2.402;2023-12-07T00:11:15;100088.84;;;5.48;100.00
48882;BME280;57063;51.406;-2.402;2023-12-07T00:13:40;100086.09;;;5.53;100.00
48882;BME280;57063;51.406;-2.402;2023-12-07T00:16:06;100090.53;;;5.49;100.00
48882;BME280;57063;51.406;-2.402;2023-12-07T00:18:31;100082.84;;;5.49;100.00
48882;BME280;57063;51.406;-2.402;2023-12-07T00:20:57;100069.22;;;5.49;100.00
48882;BME280;57063;51.406;-2.402;2023-12-07T00:23:22;100063.25;;;5.48;100.00
48882;BME280;57063;51.406;-2.402;2023-12-07T00:25:49;100065.00;;;5.48;100.00
48882;BME280;57063;51.406;-2.402;2023-12-07T00:28:14;100059.53;;;5.55;100.00
48882;BME280;57063;51.406;-2.402;2023-12-07T00:30:39;100059.28;;;5.62;100.00
48882;BME280;57063;51.406;-2.402;2023-12-07T00:33:07;100054.69;;;5.49;100.00
48882;BME280;57063;51.406;-2.402;2023-12-07T00:35:33;100045.03;;;5.56;100.00
48882;BME280;57063;51.406;-2.402;2023-12-07T00:37:58;100049.19;;;5.58;100.00
48882;BME280;57063;51.406;-2.402;2023-12-07T00:40:24;100044.06;;;5.58;100.00
48882;BME280;57063;51.406;-2.402;2023-12-07T00:42:49;100048.28;;;5.60;100.00
48882;BME280;57063;51.406;-2.402;2023-12-07T00:45:15;100035.69;;;5.55;100.00
48882;BME280;57063;51.406;-2.402;2023-12-07T00:47:40;100028.91;;;5.54;100.00
48882;BME280;57063;51.406;-2.402;2023-12-07T00:50:06;100027.19;;;5.54;100.00
48882;BME280;57063;51.406;-2.402;2023-12-07T00:52:31;100023.06;;;5.50;100.00
48882;BME280;57063;51.406;-2.402;2023-12-07T00:54:57;100023.84;;;5.52;100.00
48882;BME280;57063;51.406;-2.402;2023-12-07T00:57:22;100020.25;;;5.56;100.00
48882;BME280;57063;51.406;-2.402;2023-12-07T00:59:48;100027.31;;;5.70;100.00
48882;BME280;57063;51.406;-2.402;2023-12-07T01:02:13;100014.81;;;5.64;100.00
48882;BME280;57063;51.406;-2.402;2023-12-07T01:04:39;100018.47;;;5.58;100.00
48882;BME280;57063;51.406;-2.402;2023-12-07T01:07:04;99995.22;;;5.63;100.00
48882;BME280;57063;51.406;-2.402;2023-12-07T01:09:30;99999.31;;;5.67;100.00
48882;BME280;57063;51.406;-2.402;2023-12-07T01:11:55;99992.19;;;5.74;100.00
48882;BME280;57063;51.406;-2.402;2023-12-07T01:14:21;99987.66;;;5.60;100.00
48882;BME280;57063;51.406;-2.402;2023-12-07T01:16:46;99991.81;;;5.63;100.00
48882;BME280;57063;51.406;-2.402;2023-12-07T01:19:11;99982.09;;;5.71;100.00
48882;BME280;57063;51.406;-2.402;2023-12-07T01:21:42;99981.53;;;5.64;100.00
48882;BME280;57063;51.406;-2.402;2023-12-07T01:24:08;99980.81;;;5.61;100.00
48882;BME280;57063;51.406;-2.402;2023-12-07T01:26:33;99979.94;;;5.62;100.00
48882;BME280;57063;51.406;-2.402;2023-12-07T01:28:59;99978.13;;;5.64;100.00
48882;BME280;57063;51.406;-2.402;2023-12-07T01:31:24;99972.94;;;5.65;100.00
48882;BME280;57063;51.406;-2.402;2023-12-07T01:33:50;99965.75;;;5.54;100.00
48882;BME280;57063;51.406;-2.402;2023-12-07T01:36:15;99973.06;;;5.62;100.00
48882;BME280;57063;51.406;-2.402;2023-12-07T01:38:40;99965.59;;;5.57;100.00
48882;BME280;57063;51.406;-2.402;2023-12-07T01:41:06;99958.44;;;5.66;100.00
48882;BME280;57063;51.406;-2.402;2023-12-07T01:43:31;99947.31;;;5.65;100.00
48882;BME280;57063;51.406;-2.402;2023-12-07T01:45:57;99947.31;;;5.65;100.00
48882;BME280;57063;51.406;-2.402;2023-12-07T01:48:24;99943.19;;;5.63;100.00
48882;BME280;57063;51.406;-2.402;2023-12-07T01:50:52;99933.84;;;5.62;100.00
48882;BME280;57063;51.406;-2.402;2023-12-07T01:53:18;99918.41;;;5.63;100.00
48882;BME280;57063;51.406;-2.402;2023-12-07T01:55:45;99913.44;;;5.60;100.00
48882;BME280;57063;51.406;-2.402;2023-12-07T01:58:10;99905.88;;;5.76;100.00
48882;BME280;57063;51.406;-2.402;2023-12-07T02:00:36;99893.34;;;5.70;100.00
48882;BME280;57063;51.406;-2.402;2023-12-07T02:03:05;99895.84;;;5.71;100.00
48882;BME280;57063;51.406;-2.402;2023-12-07T02:05:31;99902.84;;;5.68;100.00
48882;BME280;57063;51.406;-2.402;2023-12-07T02:07:58;99906.66;;;5.78;100.00
48882;BME280;57063;51.406;-2.402;2023-12-07T02:10:24;99894.88;;;5.74;100.00
48882;BME280;57063;51.406;-2.402;2023-12-07T02:12:50;99877.78;;;5.74;100.00
48882;BME280;57063;51.406;-2.402;2023-12-07T02:15:16;99881.16;;;5.75;100.00
48882;BME280;57063;51.406;-2.402;2023-12-07T02:17:56;99893.22;;;5.73;100.00
48882;BME280;57063;51.406;-2.402;2023-12-07T02:20:30;99892.22;;;5.75;100.00
48882;BME280;57063;51.406;-2.402;2023-12-07T02:23:03;99879.38;;;5.77;100.00
48882;BME280;57063;51.406;-2.402;2023-12-07T02:25:35;99879.97;;;5.82;100.00
48882;BME280;57063;51.406;-2.402;2023-12-07T02:28:02;99874.72;;;5.85;100.00
48882;BME280;57063;51.406;-2.402;2023-12-07T02:30:28;99868.69;;;5.86;100.00
48882;BME280;57063;51.406;-2.402;2023-12-07T02:32:53;99874.44;;;5.91;100.00
48882;BME280;57063;51.406;-2.402;2023-12-07T02:35:19;99871.47;;;5.82;100.00
48882;BME280;57063;51.406;-2.402;2023-12-07T02:37:48;99865.94;;;5.91;100.00
48882;BME280;57063;51.406;-2.402;2023-12-07T02:40:26;99863.03;;;5.98;100.00
48882;BME280;57063;51.406;-2.402;2023-12-07T02:42:53;99864.94;;;5.93;100.00
48882;BME280;57063;51.406;-2.402;2023-12-07T02:45:19;99863.03;;;5.98;100.00
48882;BME280;57063;51.406;-2.402;2023-12-07T02:47:44;99853.59;;;5.99;100.00
48882;BME280;57063;51.406;-2.402;2023-12-07T02:50:11;99851.88;;;5.99;100.00
48882;BME280;57063;51.406;-2.402;2023-12-07T02:52:37;99847.22;;;6.08;100.00
48882;BME280;57063;51.406;-2.402;2023-12-07T02:55:02;99841.03;;;6.12;100.00
48882;BME280;57063;51.406;-2.402;2023-12-07T02:57:28;99848.06;;;6.08;100.00
48882;BME280;57063;51.406;-2.402;2023-12-07T02:59:55;99837.38;;;6.17;100.00
48882;BME280;57063;51.406;-2.402;2023-12-07T03:02:20;99840.69;;;6.19;100.00
48882;BME280;57063;51.406;-2.402;2023-12-07T03:04:46;99835.19;;;6.10;100.00
48882;BME280;57063;51.406;-2.402;2023-12-07T03:07:11;99838.03;;;6.21;100.00
48882;BME280;57063;51.406;-2.402;2023-12-07T03:09:36;99827.94;;;6.18;100.00
48882;BME280;57063;51.406;-2.402;2023-12-07T03:12:02;99836.22;;;6.23;100.00
48882;BME280;57063;51.406;-2.402;2023-12-07T03:14:27;99833.59;;;6.25;100.00
48882;BME280;57063;51.406;-2.402;2023-12-07T03:16:53;99814.50;;;6.30;100.00
48882;BME280;57063;51.406;-2.402;2023-12-07T03:19:18;99816.91;;;6.33;100.00
48882;BME280;57063;51.406;-2.402;2023-12-07T03:21:44;99811.03;;;6.31;100.00
48882;BME280;57063;51.406;-2.402;2023-12-07T03:24:09;99803.59;;;6.44;100.00
48882;BME280;57063;51.406;-2.402;2023-12-07T03:26:36;99788.50;;;6.38;100.00
48882;BME280;57063;51.406;-2.402;2023-12-07T03:29:02;99785.88;;;6.39;100.00
48882;BME280;57063;51.406;-2.402;2023-12-07T03:31:28;99785.41;;;6.49;100.00
48882;BME280;57063;51.406;-2.402;2023-12-07T03:33:56;99779.59;;;6.45;100.00
48882;BME280;57063;51.406;-2.402;2023-12-07T03:36:22;99785.41;;;6.49;100.00
48882;BME280;57063;51.406;-2.402;2023-12-07T03:38:49;99778.31;;;6.54;100.00
48882;BME280;57063;51.406;-2.402;2023-12-07T03:41:14;99770.38;;;6.58;100.00
48882;BME280;57063;51.406;-2.402;2023-12-07T03:43:40;99766.22;;;6.56;100.00
48882;BME280;57063;51.406;-2.402;2023-12-07T03:46:08;99755.47;;;6.65;100.00
48882;BME280;57063;51.406;-2.402;2023-12-07T03:48:34;99746.44;;;6.58;100.00
48882;BME280;57063;51.406;-2.402;2023-12-07T03:51:00;99749.00;;;6.58;100.00
48882;BME280;57063;51.406;-2.402;2023-12-07T03:53:26;99725.13;;;6.57;100.00
48882;BME280;57063;51.406;-2.402;2023-12-07T03:55:52;99739.69;;;6.57;100.00
48882;BME280;57063;51.406;-2.402;2023-12-07T03:58:17;99727.84;;;6.54;100.00
48882;BME280;57063;51.406;-2.402;2023-12-07T04:00:42;99729.25;;;6.60;100.00
48882;BME280;57063;51.406;-2.402;2023-12-07T04:03:09;99727.84;;;6.70;100.00
48882;BME280;57063;51.406;-2.402;2023-12-07T04:05:34;99729.53;;;6.71;100.00
48882;BME280;57063;51.406;-2.402;2023-12-07T04:07:59;99727.22;;;6.67;100.00
48882;BME280;57063;51.406;-2.402;2023-12-07T04:10:25;99732.56;;;6.62;100.00
48882;BME280;57063;51.406;-2.402;2023-12-07T04:12:50;99730.66;;;6.65;100.00
48882;BME280;57063;51.406;-2.402;2023-12-07T04:15:18;99728.84;;;6.68;100.00
48882;BME280;57063;51.406;-2.402;2023-12-07T04:17:43;99739.56;;;6.76;100.00
48882;BME280;57063;51.406;-2.402;2023-12-07T04:20:09;99733.31;;;6.64;100.00
48882;BME280;57063;51.406;-2.402;2023-12-07T04:22:34;99743.41;;;6.67;100.00
48882;BME280;57063;51.406;-2.402;2023-12-07T04:25:00;99731.19;;;6.72;100.00
48882;BME280;57063;51.406;-2.402;2023-12-07T04:27:25;99732.50;;;6.63;100.00
48882;BME280;57063;51.406;-2.402;2023-12-07T04:29:50;99731.50;;;6.66;100.00
48882;BME280;57063;51.406;-2.402;2023-12-07T04:32:16;99743.34;;;6.69;100.00
48882;BME280;57063;51.406;-2.402;2023-12-07T04:34:41;99744.09;;;6.71;100.00
48882;BME280;57063;51.406;-2.402;2023-12-07T04:37:06;99726.78;;;6.74;100.00
48882;BME280;57063;51.406;-2.402;2023-12-07T04:39:32;99727.03;;;6.70;100.00
48882;BME280;57063;51.406;-2.402;2023-12-07T04:41:57;99733.25;;;6.81;100.00
48882;BME280;57063;51.406;-2.402;2023-12-07T04:44:22;99726.50;;;6.80;100.00
48882;BME280;57063;51.406;-2.402;2023-12-07T04:46:50;99730.53;;;6.84;100.00
48882;BME280;57063;51.406;-2.402;2023-12-07T04:49:16;99734.50;;;6.74;100.00
48882;BME280;57063;51.406;-2.402;2023-12-07T04:51:41;99740.78;;;6.84;100.00
48882;BME280;57063;51.406;-2.402;2023-12-07T04:54:11;99736.66;;;6.82;100.00
48882;BME280;57063;51.406;-2.402;2023-12-07T04:56:37;99726.16;;;6.86;100.00
48882;BME280;57063;51.406;-2.402;2023-12-07T04:59:02;99722.66;;;6.88;100.00
48882;BME280;57063;51.406;-2.402;2023-12-07T05:01:27;99730.69;;;6.81;100.00
48882;BME280;57063;51.406;-2.402;2023-12-07T05:03:53;99725.88;;;6.75;100.00
48882;BME280;57063;51.406;-2.402;2023-12-07T05:06:18;99714.56;;;6.79;100.00
48882;BME280;57063;51.406;-2.402;2023-12-07T05:08:43;99721.66;;;6.74;100.00
48882;BME280;57063;51.406;-2.402;2023-12-07T05:11:09;99720.09;;;6.88;100.00
48882;BME280;57063;51.406;-2.402;2023-12-07T05:13:34;99723.16;;;6.94;100.00
48882;BME280;57063;51.406;-2.402;2023-12-07T05:16:00;99721.44;;;6.79;100.00
48882;BME280;57063;51.406;-2.402;2023-12-07T05:18:26;99722.06;;;6.82;100.00
48882;BME280;57063;51.406;-2.402;2023-12-07T05:20:51;99720.44;;;6.81;100.00
48882;BME280;57063;51.406;-2.402;2023-12-07T05:23:16;99725.22;;;6.88;100.00
48882;BME280;57063;51.406;-2.402;2023-12-07T05:25:42;99714.97;;;6.88;100.00
48882;BME280;57063;51.406;-2.402;2023-12-07T05:28:08;99704.56;;;6.91;100.00
48882;BME280;57063;51.406;-2.402;2023-12-07T05:30:34;99697.75;;;6.90;100.00
48882;BME280;57063;51.406;-2.402;2023-12-07T05:33:01;99701.72;;;6.79;100.00
48882;BME280;57063;51.406;-2.402;2023-12-07T05:35:26;99693.16;;;6.80;100.00
48882;BME280;57063;51.406;-2.402;2023-12-07T05:37:52;99695.75;;;6.95;100.00
48882;BME280;57063;51.406;-2.402;2023-12-07T05:40:17;99693.53;;;6.73;100.00
48882;BME280;57063;51.406;-2.402;2023-12-07T05:42:43;99689.66;;;6.81;100.00
48882;BME280;57063;51.406;-2.402;2023-12-07T05:45:09;99694.28;;;6.75;100.00
48882;BME280;57063;51.406;-2.402;2023-12-07T05:47:35;99680.31;;;6.80;100.00
48882;BME280;57063;51.406;-2.402;2023-12-07T05:50:01;99674.28;;;6.81;100.00
48882;BME280;57063;51.406;-2.402;2023-12-07T05:52:28;99671.88;;;6.78;100.00
48882;BME280;57063;51.406;-2.402;2023-12-07T05:54:53;99661.03;;;6.89;100.00
48882;BME280;57063;51.406;-2.402;2023-12-07T05:57:19;99655.97;;;6.88;100.00
48882;BME280;57063;51.406;-2.402;2023-12-07T05:59:44;99660.53;;;6.82;100.00
48882;BME280;57063;51.406;-2.402;2023-12-07T06:02:09;99659.19;;;6.75;100.00
48882;BME280;57063;51.406;-2.402;2023-12-07T06:04:35;99657.56;;;6.74;100.00
48882;BME280;57063;51.406;-2.402;2023-12-07T06:07:00;99657.56;;;6.74;100.00
48882;BME280;57063;51.406;-2.402;2023-12-07T06:09:25;99642.34;;;6.71;100.00
48882;BME280;57063;51.406;-2.402;2023-12-07T06:11:51;99643.16;;;6.72;100.00
48882;BME280;57063;51.406;-2.402;2023-12-07T06:14:16;99638.09;;;6.70;100.00
48882;BME280;57063;51.406;-2.402;2023-12-07T06:16:42;99627.72;;;6.73;100.00
48882;BME280;57063;51.406;-2.402;2023-12-07T06:19:07;99624.28;;;6.73;100.00
48882;BME280;57063;51.406;-2.402;2023-12-07T06:21:33;99625.59;;;6.80;100.00
48882;BME280;57063;51.406;-2.402;2023-12-07T06:23:58;99630.16;;;6.75;100.00
48882;BME280;57063;51.406;-2.402;2023-12-07T06:26:26;99634.31;;;6.77;100.00
48882;BME280;57063;51.406;-2.402;2023-12-07T06:28:52;99633.81;;;6.71;100.00
48882;BME280;57063;51.406;-2.402;2023-12-07T06:31:17;99618.16;;;6.75;100.00
48882;BME280;57063;51.406;-2.402;2023-12-07T06:33:47;99624.03;;;6.77;100.00
48882;BME280;57063;51.406;-2.402;2023-12-07T06:36:21;99628.84;;;6.83;100.00
48882;BME280;57063;51.406;-2.402;2023-12-07T06:38:47;99617.09;;;6.79;100.00
48882;BME280;57063;51.406;-2.402;2023-12-07T06:41:12;99609.47;;;6.78;100.00
48882;BME280;57063;51.406;-2.402;2023-12-07T06:43:38;99614.53;;;6.79;100.00
48882;BME280;57063;51.406;-2.402;2023-12-07T06:46:03;99608.22;;;6.85;100.00
48882;BME280;57063;51.406;-2.402;2023-12-07T06:48:29;99603.09;;;6.85;100.00
48882;BME280;57063;51.406;-2.402;2023-12-07T06:50:54;99603.19;;;6.83;100.00
48882;BME280;57063;51.406;-2.402;2023-12-07T06:53:19;99602.44;;;6.81;100.00
48882;BME280;57063;51.406;-2.402;2023-12-07T06:55:45;99608.41;;;6.82;100.00
48882;BME280;57063;51.406;-2.402;2023-12-07T06:58:10;99603.84;;;6.87;100.00
48882;BME280;57063;51.406;-2.402;2023-12-07T07:00:36;99601.47;;;6.84;100.00
48882;BME280;57063;51.406;-2.402;2023-12-07T07:03:01;99600.28;;;6.90;100.00
48882;BME280;57063;51.406;-2.402;2023-12-07T07:05:27;99588.38;;;6.89;100.00
48882;BME280;57063;51.406;-2.402;2023-12-07T07:07:52;99592.44;;;6.93;100.00
48882;BME280;57063;51.406;-2.402;2023-12-07T07:10:18;99593.31;;;6.92;100.00
48882;BME280;57063;51.406;-2.402;2023-12-07T07:12:43;99588.19;;;6.92;100.00
48882;BME280;57063;51.406;-2.402;2023-12-07T07:15:09;99584.56;;;6.96;100.00
48882;BME280;57063;51.406;-2.402;2023-12-07T07:17:34;99587.19;;;6.94;100.00
48882;BME280;57063;51.406;-2.402;2023-12-07T07:20:00;99585.38;;;6.96;100.00
48882;BME280;57063;51.406;-2.402;2023-12-07T07:22:25;99566.84;;;6.91;100.00
48882;BME280;57063;51.406;-2.402;2023-12-07T07:24:50;99572.72;;;6.93;100.00
48882;BME280;57063;51.406;-2.402;2023-12-07T07:27:15;99572.38;;;6.99;100.00
48882;BME280;57063;51.406;-2.402;2023-12-07T07:29:41;99567.50;;;6.95;100.00
48882;BME280;57063;51.406;-2.402;2023-12-07T07:32:06;99570.91;;;6.95;100.00
48882;BME280;57063;51.406;-2.402;2023-12-07T07:34:32;99576.44;;;7.03;100.00
48882;BME280;57063;51.406;-2.402;2023-12-07T07:36:57;99565.16;;;7.06;100.00
48882;BME280;57063;51.406;-2.402;2023-12-07T07:39:22;99568.97;;;6.99;100.00
48882;BME280;57063;51.406;-2.402;2023-12-07T07:41:48;99567.59;;;6.93;100.00
48882;BME280;57063;51.406;-2.402;2023-12-07T07:44:13;99559.09;;;6.93;100.00
48882;BME280;57063;51.406;-2.402;2023-12-07T07:46:40;99555.41;;;6.97;100.00
48882;BME280;57063;51.406;-2.402;2023-12-07T07:49:06;99553.97;;;6.93;100.00
48882;BME280;57063;51.406;-2.402;2023-12-07T07:51:31;99555.34;;;6.98;100.00
48882;BME280;57063;51.406;-2.402;2023-12-07T07:53:58;99538.88;;;7.02;100.00
48882;BME280;57063;51.406;-2.402;2023-12-07T07:56:24;99552.50;;;7.03;100.00
48882;BME280;57063;51.406;-2.402;2023-12-07T07:58:49;99533.44;;;6.93;100.00
48882;BME280;57063;51.406;-2.402;2023-12-07T08:01:15;99536.72;;;6.95;100.00
48882;BME280;57063;51.406;-2.402;2023-12-07T08:03:40;99533.31;;;6.94;100.00
48882;BME280;57063;51.406;-2.402;2023-12-07T08:06:06;99536.56;;;6.98;100.00
48882;BME280;57063;51.406;-2.402;2023-12-07T08:08:32;99526.31;;;6.98;100.00
48882;BME280;57063;51.406;-2.402;2023-12-07T08:10:57;99523.72;;;6.98;100.00
48882;BME280;57063;51.406;-2.402;2023-12-07T08:13:23;99523.00;;;6.96;100.00
48882;BME280;57063;51.406;-2.402;2023-12-07T08:15:48;99511.59;;;6.85;100.00
48882;BME280;57063;51.406;-2.402;2023-12-07T08:18:13;99526.81;;;6.89;100.00
48882;BME280;57063;51.406;-2.402;2023-12-07T08:20:39;99514.47;;;6.95;100.00
48882;BME280;57063;51.406;-2.402;2023-12-07T08:23:05;99517.03;;;6.95;100.00
48882;BME280;57063;51.406;-2.402;2023-12-07T08:25:30;99510.16;;;6.96;100.00
48882;BME280;57063;51.406;-2.402;2023-12-07T08:27:57;99505.78;;;6.98;100.00
48882;BME280;57063;51.406;-2.402;2023-12-07T08:30:23;99494.13;;;7.06;100.00
48882;BME280;57063;51.406;-2.402;2023-12-07T08:32:48;99499.47;;;7.03;100.00
48882;BME280;57063;51.406;-2.402;2023-12-07T08:35:13;99494.97;;;7.07;100.00
48882;BME280;57063;51.406;-2.402;2023-12-07T08:37:39;99481.75;;;6.99;100.00
48882;BME280;57063;51.406;-2.402;2023-12-07T08:40:05;99481.75;;;6.99;100.00
48882;BME280;57063;51.406;-2.402;2023-12-07T08:42:31;99486.19;;;7.11;100.00
48882;BME280;57063;51.406;-2.402;2023-12-07T08:44:57;99475.53;;;7.03;100.00
48882;BME280;57063;51.406;-2.402;2023-12-07T08:47:22;99470.22;;;7.06;100.00
48882;BME280;57063;51.406;-2.402;2023-12-07T08:49:48;99472.44;;;6.98;100.00
48882;BME280;57063;51.406;-2.402;2023-12-07T08:52:13;99460.91;;;7.05;100.00
48882;BME280;57063;51.406;-2.402;2023-12-07T08:54:38;99465.03;;;7.07;100.00
48882;BME280;57063;51.406;-2.402;2023-12-07T08:57:04;99453.81;;;7.08;100.00
48882;BME280;57063;51.406;-2.402;2023-12-07T08:59:29;99448.97;;;7.04;100.00
48882;BME280;57063;51.406;-2.402;2023-12-07T09:01:55;99448.78;;;7.07;100.00
48882;BME280;57063;51.406;-2.402;2023-12-07T09:04:21;99438.16;;;6.99;100.00
48882;BME280;57063;51.406;-2.402;2023-12-07T09:06:46;99438.22;;;6.97;100.00
48882;BME280;57063;51.406;-2.402;2023-12-07T09:09:12;99447.84;;;6.94;100.00
48882;BME280;57063;51.406;-2.402;2023-12-07T09:11:37;99437.94;;;6.88;100.00
48882;BME280;57063;51.406;-2.402;2023-12-07T09:14:02;99448.03;;;6.91;100.00
48882;BME280;57063;51.406;-2.402;2023-12-07T09:16:28;99433.94;;;6.98;100.00
48882;BME280;57063;51.406;-2.402;2023-12-07T09:18:53;99435.84;;;6.94;100.00
48882;BME280;57063;51.406;-2.402;2023-12-07T09:21:19;99432.19;;;6.98;100.00
48882;BME280;57063;51.406;-2.402;2023-12-07T09:23:44;99435.78;;;6.96;100.00
48882;BME280;57063;51.406;-2.402;2023-12-07T09:26:10;99416.88;;;6.82;100.00
48882;BME280;57063;51.406;-2.402;2023-12-07T09:28:35;99424.22;;;6.89;100.00
48882;BME280;57063;51.406;-2.402;2023-12-07T09:31:00;99421.72;;;6.87;100.00
48882;BME280;57063;51.406;-2.402;2023-12-07T09:33:26;99417.06;;;6.94;100.00
48882;BME280;57063;51.406;-2.402;2023-12-07T09:35:51;99416.16;;;6.95;100.00
48882;BME280;57063;51.406;-2.402;2023-12-07T09:38:17;99398.19;;;6.95;100.00
48882;BME280;57063;51.406;-2.402;2023-12-07T09:40:43;99388.84;;;6.79;100.00
48882;BME280;57063;51.406;-2.402;2023-12-07T09:43:08;99388.66;;;6.82;100.00
48882;BME280;57063;51.406;-2.402;2023-12-07T09:45:34;99379.88;;;6.86;100.00
48882;BME280;57063;51.406;-2.402;2023-12-07T09:47:59;99374.41;;;6.93;100.00
48882;BME280;57063;51.406;-2.402;2023-12-07T09:50:26;99365.84;;;6.92;100.00
48882;BME280;57063;51.406;-2.402;2023-12-07T09:52:56;99360.84;;;6.91;100.00
48882;BME280;57063;51.406;-2.402;2023-12-07T09:55:22;99352.22;;;6.92;100.00
48882;BME280;57063;51.406;-2.402;2023-12-07T09:57:51;99347.00;;;6.79;100.00
48882;BME280;57063;51.406;-2.402;2023-12-07T10:00:17;99354.59;;;6.80;100.00
48882;BME280;57063;51.406;-2.402;2023-12-07T10:02:45;99364.28;;;6.90;100.00
48882;BME280;57063;51.406;-2.402;2023-12-07T10:05:12;99370.16;;;6.77;100.00
48882;BME280;57063;51.406;-2.402;2023-12-07T10:07:45;99370.63;;;6.84;100.00
48882;BME280;57063;51.406;-2.402;2023-12-07T10:10:13;99379.78;;;6.74;100.00
48882;BME280;57063;51.406;-2.402;2023-12-07T10:12:52;99377.03;;;6.77;100.00
48882;BME280;57063;51.406;-2.402;2023-12-07T10:15:18;99379.25;;;6.83;100.00
48882;BME280;57063;51.406;-2.402;2023-12-07T10:20:18;99377.66;;;6.66;100.00
48882;BME280;57063;51.406;-2.402;2023-12-07T10:22:45;99372.44;;;6.68;100.00
48882;BME280;57063;51.406;-2.402;2023-12-07T10:25:11;99382.06;;;6.64;100.00
48882;BME280;57063;51.406;-2.402;2023-12-07T10:27:39;99368.41;;;6.78;100.00
48882;BME280;57063;51.406;-2.402;2023-12-07T10:30:06;99352.38;;;6.60;100.00
48882;BME280;57063;51.406;-2.402;2023-12-07T10:32:37;99359.25;;;6.74;100.00
48882;BME280;57063;51.406;-2.402;2023-12-07T10:35:05;99362.09;;;6.69;100.00
48882;BME280;57063;51.406;-2.402;2023-12-07T10:37:32;99350.72;;;6.59;100.00
48882;BME280;57063;51.406;-2.402;2023-12-07T10:39:57;99358.97;;;6.64;100.00
48882;BME280;57063;51.406;-2.402;2023-12-07T10:42:24;99358.69;;;6.54;100.00
48882;BME280;57063;51.406;-2.402;2023-12-07T10:44:53;99367.56;;;6.49;100.00
48882;BME280;57063;51.406;-2.402;2023-12-07T10:47:22;99364.63;;;6.55;100.00
48882;BME280;57063;51.406;-2.402;2023-12-07T10:49:52;99361.81;;;6.59;100.00
48882;BME280;57063;51.406;-2.402;2023-12-07T10:52:24;99349.06;;;6.58;100.00
48882;BME280;57063;51.406;-2.402;2023-12-07T10:57:15;99335.13;;;6.48;100.00
48882;BME280;57063;51.406;-2.402;2023-12-07T10:59:43;99311.00;;;6.66;100.00
48882;BME280;57063;51.406;-2.402;2023-12-07T11:02:12;99308.03;;;6.58;100.00
48882;BME280;57063;51.406;-2.402;2023-12-07T11:04:41;99302.75;;;6.61;100.00
48882;BME280;57063;51.406;-2.402;2023-12-07T11:07:10;99302.94;;;6.72;100.00
48882;BME280;57063;51.406;-2.402;2023-12-07T11:09:43;99305.03;;;6.65;100.00
48882;BME280;57063;51.406;-2.402;2023-12-07T11:12:16;99290.50;;;6.66;100.00
48882;BME280;57063;51.406;-2.402;2023-12-07T11:14:43;99279.31;;;6.67;100.00
48882;BME280;57063;51.406;-2.402;2023-12-07T11:17:09;99265.66;;;6.67;100.00
48882;BME280;57063;51.406;-2.402;2023-12-07T11:19:43;99259.25;;;6.59;100.00
48882;BME280;57063;51.406;-2.402;2023-12-07T11:22:11;99250.56;;;6.76;100.00
48882;BME280;57063;51.406;-2.402;2023-12-07T11:24:37;99259.59;;;6.68;100.00
48882;BME280;57063;51.406;-2.402;2023-12-07T11:27:02;99250.38;;;6.65;100.00
48882;BME280;57063;51.406;-2.402;2023-12-07T11:29:28;99243.13;;;6.72;100.00
48882;BME280;57063;51.406;-2.402;2023-12-07T11:32:02;99257.44;;;6.76;100.00
48882;BME280;57063;51.406;-2.402;2023-12-07T11:37:01;99240.66;;;6.70;100.00
48882;BME280;57063;51.406;-2.402;2023-12-07T11:39:28;99233.06;;;6.69;100.00
48882;BME280;57063;51.406;-2.402;2023-12-07T11:41:55;99210.53;;;6.74;100.00
48882;BME280;57063;51.406;-2.402;2023-12-07T11:44:37;99220.50;;;6.78;100.00
48882;BME280;57063;51.406;-2.402;2023-12-07T11:47:04;99225.09;;;6.73;100.00
48882;BME280;57063;51.406;-2.402;2023-12-07T11:49:30;99222.41;;;6.75;100.00
48882;BME280;57063;51.406;-2.402;2023-12-07T11:51:57;99219.25;;;6.71;100.00
48882;BME280;57063;51.406;-2.402;2023-12-07T11:54:23;99208.59;;;6.77;100.00
48882;BME280;57063;51.406;-2.402;2023-12-07T11:56:55;99210.25;;;6.78;100.00
48882;BME280;57063;51.406;-2.402;2023-12-07T11:59:20;99215.72;;;6.86;100.00
48882;BME280;57063;51.406;-2.402;2023-12-07T12:01:47;99192.31;;;6.78;100.00
48882;BME280;57063;51.406;-2.402;2023-12-07T12:04:14;99191.38;;;6.79;100.00
48882;BME280;57063;51.406;-2.402;2023-12-07T12:06:39;99180.63;;;6.87;100.00
48882;BME280;57063;51.406;-2.402;2023-12-07T12:09:05;99163.44;;;6.75;100.00
48882;BME280;57063;51.406;-2.402;2023-12-07T12:11:30;99167.94;;;6.85;100.00
48882;BME280;57063;51.406;-2.402;2023-12-07T12:13:55;99152.53;;;6.85;100.00
48882;BME280;57063;51.406;-2.402;2023-12-07T12:16:21;99150.88;;;6.84;100.00
48882;BME280;57063;51.406;-2.402;2023-12-07T12:18:46;99141.44;;;6.85;100.00
48882;BME280;57063;51.406;-2.402;2023-12-07T12:21:12;99125.03;;;6.88;100.00
48882;BME280;57063;51.406;-2.402;2023-12-07T12:23:37;99133.66;;;6.86;100.00
48882;BME280;57063;51.406;-2.402;2023-12-07T12:26:06;99132.91;;;6.84;100.00
48882;BME280;57063;51.406;-2.402;2023-12-07T12:28:32;99131.28;;;6.83;100.00
48882;BME280;57063;51.406;-2.402;2023-12-07T12:30:58;99126.88;;;6.85;100.00
48882;BME280;57063;51.406;-2.402;2023-12-07T12:33:23;99118.66;;;6.80;100.00
48882;BME280;57063;51.406;-2.402;2023-12-07T12:36:05;99112.69;;;6.80;100.00
48882;BME280;57063;51.406;-2.402;2023-12-07T12:38:36;99099.97;;;6.78;100.00
48882;BME280;57063;51.406;-2.402;2023-12-07T12:41:02;99098.69;;;6.85;100.00
48882;BME280;57063;51.406;-2.402;2023-12-07T12:43:29;99097.94;;;6.83;100.00
48882;BME280;57063;51.406;-2.402;2023-12-07T12:45:57;99086.38;;;6.91;100.00
48882;BME280;57063;51.406;-2.402;2023-12-07T12:48:23;99087.50;;;6.86;100.00
48882;BME280;57063;51.406;-2.402;2023-12-07T12:50:48;99077.03;;;6.90;100.00
48882;BME280;57063;51.406;-2.402;2023-12-07T12:53:14;99077.75;;;6.92;100.00